This is the latest recevied weather packets stored in our database for station/object WV8BRW. If no packets are shown the sender has not sent any weather packets the latest 1 day(s).
| Time | Temp. | Humidity | Pressure | Rain* | Wind** | Luminosity | Snow |
|---|---|---|---|---|---|---|---|
| 1778005720 | 23.89° C | 54% | 1009.4 hPa | 0 mm | 0 m/s | 243 W/m² | - |
| 1778005417 | 23.89° C | 53% | 1009.5 hPa | 0 mm | 1.34 m/s, 117° | 360 W/m² | - |
| 1778005114 | 23.89° C | 57% | 1009.6 hPa | 0 mm | 0 m/s | 344 W/m² | - |
| 1778004811 | 23.89° C | 56% | 1009.8 hPa | 0 mm | 1.34 m/s, 256° | 395 W/m² | - |
| 1778004507 | 23.89° C | 56% | 1009.9 hPa | 0 mm | 0.45 m/s, 349° | 284 W/m² | - |
| 1778004204 | 23.89° C | 62% | 1009.5 hPa | 0 mm | 0.45 m/s, 5° | 370 W/m² | - |
| 1778003900 | 23.33° C | 56% | 1009.6 hPa | 0 mm | 0.45 m/s, 346° | 305 W/m² | - |
| 1778003597 | 23.33° C | 58% | 1009.6 hPa | 0 mm | 0 m/s | 275 W/m² | - |
| 1778003294 | 22.78° C | 56% | 1009.6 hPa | 0 mm | 0 m/s | 245 W/m² | - |
| 1778002991 | 22.78° C | 54% | 1009.8 hPa | 0 mm | 0.89 m/s, 5° | 260 W/m² | - |
| 1778002687 | 22.78° C | 58% | 1009.9 hPa | 0 mm | 0.45 m/s, 326° | 249 W/m² | - |
| 1778002383 | 22.78° C | 55% | 1009.8 hPa | 0 mm | 0.89 m/s, 0° | 231 W/m² | - |
| 1778002091 | 22.78° C | 53% | 1009.8 hPa | 0 mm | 0.89 m/s, 47° | 227 W/m² | - |
| 1778001778 | 23.33° C | 54% | 1009.9 hPa | 0 mm | 0.89 m/s, 34° | 229 W/m² | - |
| 1778001472 | 23.33° C | 57% | 1010 hPa | 0 mm | 0 m/s | 224 W/m² | - |
| 1778001169 | 23.33° C | 56% | 1009.9 hPa | 0 mm | 1.34 m/s, 299° | 268 W/m² | - |
| 1778000866 | 23.33° C | 54% | 1009.8 hPa | 0 mm | 1.79 m/s, 101° | 272 W/m² | - |
| 1778000563 | 23.33° C | 57% | 1009.9 hPa | 0 mm | 0.89 m/s, 254° | 263 W/m² | - |
| 1778000258 | 23.33° C | 54% | 1009.8 hPa | 0 mm | 0.45 m/s, 337° | 259 W/m² | - |
| 1777999955 | 23.89° C | 59% | 1009.9 hPa | 0 mm | 0.45 m/s, 336° | 309 W/m² | - |
| 1777999650 | 23.89° C | 55% | 1009.9 hPa | 0 mm | 0.89 m/s, 36° | 282 W/m² | - |
| 1777999348 | 23.89° C | 55% | 1010 hPa | 0 mm | 0.45 m/s, 318° | 305 W/m² | - |
| 1777999046 | 23.89° C | 55% | 1009.9 hPa | 0 mm | 0 m/s | 362 W/m² | - |
| 1777998744 | 23.89° C | 57% | 1009.8 hPa | 0 mm | 0 m/s | 350 W/m² | - |
| 1777998441 | 23.89° C | 54% | 1009.9 hPa | 0 mm | 0.89 m/s, 323° | 353 W/m² | - |
* Rain latest hour (hover to see other rain measurements)
** Current wind speed in m/s (hover to see current wind gust speed)